Time;durP1;ratioP1;P1;durP2;ratioP2;P2;SDS_P1;SDS_P2;PMS_P1;PMS_P2;Temp;Humidity;BMP_temperature;BMP_pressure;BME280_temperature;BME280_humidity;BME280_pressure;Samples;Min_cycle;Max_cycle;Signal;HPM_P1;HPM_P2
2021/12/12 00:00:03;;;;;;;202.00;128.00;;;;;;;-0.82;81.16;98362.21;106353;1322;22536;-67
2021/12/12 00:03:03;;;;;;;209.50;132.30;;;;;;;-0.76;81.31;98369.02;106269;1323;23511;-67
2021/12/12 00:05:40;;;;;;;190.10;120.10;;;;;;;-0.69;81.26;98369.37;106387;1321;23435;-67
2021/12/12 00:08:10;;;;;;;179.20;115.30;;;;;;;-0.61;81.32;98371.14;106384;1322;22576;-67
2021/12/12 00:10:40;;;;;;;194.70;124.30;;;;;;;-0.55;80.97;98372.69;106257;1323;22283;-67
2021/12/12 00:13:17;;;;;;;177.70;110.80;;;;;;;-0.47;81.14;98372.71;106275;1323;22509;-67
2021/12/12 00:15:46;;;;;;;178.70;116.90;;;;;;;-0.42;81.04;98372.55;106401;1316;22407;-66
2021/12/12 00:18:14;;;;;;;180.80;118.50;;;;;;;-0.41;80.89;98374.04;106260;1323;22458;-67
2021/12/12 00:20:43;;;;;;;176.00;116.40;;;;;;;-0.39;81.10;98381.60;106286;1323;22483;-65
2021/12/12 00:23:11;;;;;;;182.60;115.20;;;;;;;-0.34;81.07;98386.16;106272;1323;22642;-65
2021/12/12 00:25:44;;;;;;;179.30;111.80;;;;;;;-0.29;81.09;98389.02;106385;1322;22575;-66
2021/12/12 00:28:15;;;;;;;185.00;110.70;;;;;;;-0.23;80.94;98393.61;106284;1324;22567;-66
2021/12/12 00:30:43;;;;;;;188.00;115.40;;;;;;;-0.17;80.90;98394.91;106253;1323;22579;-66
2021/12/12 00:33:12;;;;;;;202.90;126.10;;;;;;;-0.12;80.80;98395.85;106261;1324;22428;-66
2021/12/12 00:35:41;;;;;;;196.20;121.30;;;;;;;-0.09;80.84;98400.23;106400;1322;22323;-66
2021/12/12 00:38:15;;;;;;;193.40;119.60;;;;;;;-0.10;80.62;98403.53;106297;1322;23018;-66
2021/12/12 00:40:48;;;;;;;193.50;120.30;;;;;;;-0.11;80.58;98405.01;106396;1322;23364;-67
2021/12/12 00:43:36;;;;;;;192.10;119.20;;;;;;;-0.12;80.60;98411.34;106386;1322;22388;-66
2021/12/12 00:46:07;;;;;;;178.70;109.00;;;;;;;-0.10;80.62;98415.98;106281;1323;22456;-65
2021/12/12 00:48:38;;;;;;;188.80;111.70;;;;;;;-0.06;80.65;98416.16;106354;1322;22276;-65
2021/12/12 00:51:11;;;;;;;183.70;112.20;;;;;;;-0.04;80.32;98414.77;106272;1323;22539;-65
2021/12/12 00:53:40;;;;;;;188.30;117.00;;;;;;;-0.08;80.29;98420.98;106411;1322;22321;-65
2021/12/12 00:56:10;;;;;;;188.20;116.50;;;;;;;-0.14;80.28;98426.41;106381;1321;22311;-66
2021/12/12 00:58:38;;;;;;;191.80;120.40;;;;;;;-0.16;80.54;98428.45;106387;1322;22520;-65
2021/12/12 01:01:23;;;;;;;193.60;121.10;;;;;;;-0.16;80.57;98432.85;106264;1323;23297;-63
2021/12/12 01:03:57;;;;;;;193.70;121.50;;;;;;;-0.15;80.59;98429.44;106318;1317;22442;-64
2021/12/12 01:06:26;;;;;;;179.80;112.90;;;;;;;-0.17;80.39;98432.92;106249;1318;23006;-64
2021/12/12 01:08:58;;;;;;;175.00;108.70;;;;;;;-0.20;80.32;98435.73;106293;1323;22286;-64
2021/12/12 01:11:33;;;;;;;177.60;112.40;;;;;;;-0.19;80.24;98442.04;106272;1323;22408;-64
2021/12/12 01:14:04;;;;;;;185.40;117.60;;;;;;;-0.17;80.31;98446.09;106240;1324;22575;-64
2021/12/12 01:16:39;;;;;;;185.20;117.60;;;;;;;-0.19;80.38;98440.09;106267;1324;22486;-64
2021/12/12 01:19:16;;;;;;;;;;;;;;;-0.16;80.43;98442.08;106337;1323;23144;-64
2021/12/12 01:21:53;;;;;;;174.90;112.60;;;;;;;-0.18;80.42;98441.53;106266;1324;22489;-64
2021/12/12 01:24:35;;;;;;;174.00;112.20;;;;;;;-0.20;80.64;98437.98;106222;1324;22533;-64
2021/12/12 01:27:06;;;;;;;155.40;100.20;;;;;;;-0.20;80.40;98443.27;106226;1324;22491;-64
2021/12/12 01:29:35;;;;;;;147.10;93.20;;;;;;;-0.22;80.18;98442.26;106309;1323;22622;-64
2021/12/12 01:32:12;;;;;;;137.20;93.90;;;;;;;-0.27;79.94;98445.48;106247;1323;22365;-65
2021/12/12 01:34:42;;;;;;;142.60;97.30;;;;;;;-0.33;79.97;98445.23;106290;1322;22502;-65
2021/12/12 01:39:58;;;;;;;157.90;103.60;;;;;;;-0.38;80.35;98443.84;106196;1318;22535;-63
2021/12/12 01:42:40;;;;;;;143.20;98.50;;;;;;;-0.39;80.44;98443.39;106262;1318;22475;-64
2021/12/12 01:45:24;;;;;;;143.50;92.20;;;;;;;-0.41;80.44;98443.55;106302;1317;22581;-64
2021/12/12 01:48:02;;;;;;;137.60;91.30;;;;;;;-0.42;80.37;98441.58;106230;1322;22456;-64
2021/12/12 01:50:37;;;;;;;126.70;89.10;;;;;;;-0.42;80.16;98436.67;106050;1321;321571;-64
2021/12/12 01:53:12;;;;;;;146.20;96.40;;;;;;;-0.45;80.19;98435.20;106386;1321;22302;-65
2021/12/12 01:55:53;;;;;;;136.70;94.10;;;;;;;-0.51;80.31;98444.34;106387;1322;23375;-65
2021/12/12 01:58:29;;;;;;;137.90;97.20;;;;;;;-0.55;80.21;98451.41;106358;1321;22395;-65
2021/12/12 02:01:11;;;;;;;146.00;97.40;;;;;;;-0.61;80.34;98455.20;106248;1324;22430;-65
2021/12/12 02:03:49;;;;;;;137.20;95.90;;;;;;;-0.63;80.78;98454.30;106256;1324;23185;-65
2021/12/12 02:06:19;;;;;;;144.20;95.20;;;;;;;-0.64;80.58;98462.87;106241;1324;22553;-65
2021/12/12 02:08:50;;;;;;;138.60;94.50;;;;;;;-0.62;80.75;98467.45;106253;1324;22373;-65
2021/12/12 02:11:23;;;;;;;134.80;95.60;;;;;;;-0.53;80.88;98471.48;106249;1324;22292;-64
2021/12/12 02:13:56;;;;;;;151.20;101.50;;;;;;;-0.40;80.98;98469.14;106313;1322;22416;-65
2021/12/12 02:16:27;;;;;;;150.20;101.10;;;;;;;-0.30;80.92;98468.14;106251;1324;22435;-65
2021/12/12 02:18:58;;;;;;;156.50;103.90;;;;;;;-0.26;80.98;98468.41;106311;1323;22432;-65
2021/12/12 02:21:34;;;;;;;159.90;104.80;;;;;;;-0.22;80.74;98470.63;106272;1324;22345;-63
2021/12/12 02:35:24;;;;;;;154.20;101.00;;;;;;;-0.03;80.58;98457.92;106255;1323;22457;-65
2021/12/12 02:37:56;;;;;;;157.30;104.20;;;;;;;-0.12;80.29;98462.77;106272;1323;22418;-65
2021/12/12 02:40:32;;;;;;;161.60;108.30;;;;;;;-0.17;80.60;98465.90;106267;1323;22403;-65
2021/12/12 02:43:01;;;;;;;155.40;105.10;;;;;;;-0.15;80.77;98465.60;106281;1323;22504;-65
2021/12/12 02:45:31;;;;;;;150.50;96.30;;;;;;;-0.13;80.77;98469.08;106283;1323;22523;-65
2021/12/12 02:48:04;;;;;;;146.30;97.00;;;;;;;-0.09;80.95;98477.33;106221;1324;22580;-65
2021/12/12 02:50:39;;;;;;;151.90;103.60;;;;;;;-0.03;80.76;98480.54;106276;1323;22508;-65
2021/12/12 02:53:24;;;;;;;155.10;101.90;;;;;;;0.03;80.90;98479.27;106258;1324;23212;-63
2021/12/12 02:56:00;;;;;;;158.50;104.20;;;;;;;0.07;80.84;98475.28;106256;1324;22295;-65
2021/12/12 02:58:29;;;;;;;170.40;112.30;;;;;;;0.06;80.59;98476.36;106291;1323;23169;-65
2021/12/12 03:01:21;;;;;;;171.40;113.80;;;;;;;0.06;80.71;98478.67;106270;1323;22535;-65
2021/12/12 03:03:51;;;;;;;160.80;109.20;;;;;;;0.06;80.86;98484.30;106271;1323;22423;-65
2021/12/12 03:06:28;;;;;;;151.50;99.40;;;;;;;0.07;80.79;98494.05;106259;1323;22401;-65
2021/12/12 03:09:23;;;;;;;164.40;107.50;;;;;;;0.09;80.76;98492.51;106299;1323;22512;-65
2021/12/12 03:11:59;;;;;;;164.30;109.20;;;;;;;0.13;80.63;98486.20;106247;1324;22532;-65
2021/12/12 03:14:33;;;;;;;167.10;110.10;;;;;;;0.16;80.66;98486.14;106237;1323;22484;-65
2021/12/12 03:17:08;;;;;;;167.40;111.30;;;;;;;0.21;80.77;98475.83;106267;1323;23231;-65
2021/12/12 03:19:37;;;;;;;167.80;113.00;;;;;;;0.22;80.77;98470.95;106251;1323;22409;-65
2021/12/12 03:22:09;;;;;;;170.90;115.70;;;;;;;0.21;80.47;98477.58;106284;1323;22460;-65
2021/12/12 03:24:38;;;;;;;175.00;113.80;;;;;;;0.18;80.60;98482.21;106292;1323;22774;-65
2021/12/12 03:27:07;;;;;;;165.90;109.80;;;;;;;0.19;80.53;98483.46;106254;1323;22466;-65
2021/12/12 03:29:39;;;;;;;176.70;115.40;;;;;;;0.18;80.40;98481.64;106203;1324;22433;-66
2021/12/12 03:32:12;;;;;;;180.20;117.70;;;;;;;0.18;80.42;98485.71;106297;1323;22273;-65
2021/12/12 03:34:54;;;;;;;179.10;120.10;;;;;;;0.18;80.62;98485.27;106249;1323;22563;-65
2021/12/12 03:37:27;;;;;;;180.90;121.60;;;;;;;0.15;80.55;98488.88;106270;1324;23358;-64
2021/12/12 03:39:58;;;;;;;182.80;122.00;;;;;;;0.13;80.57;98490.20;106250;1323;22624;-64
2021/12/12 03:42:29;;;;;;;172.30;112.00;;;;;;;0.12;80.68;98489.92;106270;1324;22592;-65
2021/12/12 03:44:59;;;;;;;171.60;108.00;;;;;;;0.11;80.45;98495.14;106297;1323;23155;-64
2021/12/12 03:47:37;;;;;;;171.20;113.60;;;;;;;0.08;80.21;98497.21;106257;1323;22491;-65
2021/12/12 03:50:12;;;;;;;190.30;124.60;;;;;;;0.02;80.39;98503.73;106200;1323;22504;-65
2021/12/12 03:52:40;;;;;;;276.30;173.90;;;;;;;-0.04;80.49;98504.67;106258;1323;22547;-64
2021/12/12 03:55:10;;;;;;;237.90;152.60;;;;;;;-0.08;80.70;98506.06;106255;1323;22397;-65
2021/12/12 03:57:38;;;;;;;229.40;147.30;;;;;;;-0.08;80.85;98506.59;106241;1323;22312;-65
2021/12/12 04:00:13;;;;;;;190.60;121.00;;;;;;;-0.10;80.66;98509.48;106280;1321;23379;-64
2021/12/12 04:02:42;;;;;;;180.90;116.20;;;;;;;-0.10;80.73;98510.27;106249;1323;22382;-64
2021/12/12 04:05:10;;;;;;;163.30;107.30;;;;;;;-0.05;80.78;98508.35;106275;1324;22422;-64
2021/12/12 04:07:39;;;;;;;161.80;108.00;;;;;;;0.03;80.86;98506.80;106221;1324;22478;-64
2021/12/12 04:10:09;;;;;;;171.80;113.90;;;;;;;0.07;80.81;98508.52;106221;1322;23419;-64
2021/12/12 04:12:38;;;;;;;174.50;114.20;;;;;;;0.07;80.95;98507.04;106283;1323;22467;-63
2021/12/12 04:15:07;;;;;;;173.30;113.50;;;;;;;0.05;80.79;98499.02;106261;1317;22983;-63
2021/12/12 04:17:35;;;;;;;167.30;115.40;;;;;;;0.09;80.97;98505.06;106271;1323;22499;-64
2021/12/12 04:20:14;;;;;;;152.50;103.30;;;;;;;0.08;80.89;98504.88;106259;1323;22391;-64
2021/12/12 04:22:42;;;;;;;141.70;98.50;;;;;;;0.09;80.75;98508.58;106261;1323;22412;-65
2021/12/12 04:25:11;;;;;;;153.20;104.30;;;;;;;0.12;80.69;98505.81;106242;1324;22554;-65
2021/12/12 04:27:40;;;;;;;155.70;105.10;;;;;;;0.16;80.78;98512.15;106255;1323;22358;-65
2021/12/12 04:30:11;;;;;;;163.20;108.70;;;;;;;0.18;80.80;98516.14;106249;1323;22318;-65
2021/12/12 04:32:43;;;;;;;159.10;108.80;;;;;;;0.18;80.75;98518.73;106235;1323;22325;-65
2021/12/12 04:35:22;;;;;;;160.00;107.10;;;;;;;0.13;80.59;98523.38;106260;1323;22603;-65
2021/12/12 04:37:50;;;;;;;157.70;103.60;;;;;;;0.07;80.59;98527.88;106269;1323;23148;-65
2021/12/12 04:40:21;;;;;;;160.30;104.00;;;;;;;0.05;80.64;98531.23;106279;1318;23256;-65
2021/12/12 04:42:52;;;;;;;148.60;102.40;;;;;;;0.06;80.59;98531.02;106288;1323;22299;-65
2021/12/12 04:45:58;;;;;;;155.30;107.10;;;;;;;0.07;80.57;98535.38;106275;1323;22513;-65
2021/12/12 04:51:43;;;;;;;154.60;102.70;;;;;;;-0.07;80.33;98555.69;106271;1323;22526;-66
2021/12/12 04:54:21;;;;;;;169.50;107.50;;;;;;;-0.14;80.52;98562.09;106261;1323;22287;-65
2021/12/12 04:57:00;;;;;;;136.20;97.30;;;;;;;-0.18;80.47;98568.35;106267;1323;23399;-65
2021/12/12 04:59:42;;;;;;;135.00;95.80;;;;;;;-0.23;80.56;98572.41;106279;1323;22498;-65
2021/12/12 05:02:19;;;;;;;132.80;96.00;;;;;;;-0.25;80.37;98574.41;106283;1323;22471;-65
2021/12/12 05:05:03;;;;;;;138.70;98.80;;;;;;;-0.24;80.56;98580.29;106259;1323;23443;-66
2021/12/12 05:07:42;;;;;;;151.70;102.20;;;;;;;-0.27;80.69;98580.86;106281;1323;23219;-66
2021/12/12 05:10:22;;;;;;;164.10;111.40;;;;;;;-0.25;80.79;98585.22;106289;1323;22507;-66
2021/12/12 05:12:58;;;;;;;162.40;111.10;;;;;;;-0.26;80.77;98588.44;106246;1323;22539;-65
2021/12/12 05:15:39;;;;;;;154.70;102.80;;;;;;;-0.26;80.81;98586.04;106267;1323;23380;-64
2021/12/12 05:18:16;;;;;;;149.40;98.20;;;;;;;-0.25;80.74;98593.48;106278;1323;22633;-65
2021/12/12 05:20:49;;;;;;;153.00;105.00;;;;;;;-0.28;80.41;98596.46;106257;1323;23276;-65
2021/12/12 05:23:21;;;;;;;159.40;104.90;;;;;;;-0.32;80.57;98594.78;106286;1323;22410;-63
2021/12/12 05:25:56;;;;;;;162.60;108.30;;;;;;;-0.37;80.54;98600.64;106265;1323;22548;-65
2021/12/12 05:28:30;;;;;;;;;;;;;;;-0.44;80.64;98599.68;106293;1323;22518;-63
2021/12/12 05:31:00;;;;;;;159.30;108.90;;;;;;;-0.52;81.06;98599.63;106244;1324;22462;-63
2021/12/12 05:33:30;;;;;;;135.10;97.10;;;;;;;-0.53;80.94;98600.13;106281;1323;23218;-63
2021/12/12 05:35:59;;;;;;;120.70;90.90;;;;;;;-0.53;80.97;98603.99;106287;1323;22561;-63
2021/12/12 05:38:28;;;;;;;118.30;89.80;;;;;;;-0.52;80.88;98608.42;106295;1323;22523;-63
2021/12/12 05:40:56;;;;;;;125.90;91.10;;;;;;;-0.50;80.89;98609.38;106278;1323;22409;-63
2021/12/12 05:43:25;;;;;;;106.90;86.30;;;;;;;-0.45;81.05;98611.74;106286;1323;23064;-63
2021/12/12 05:45:54;;;;;;;125.10;94.40;;;;;;;-0.43;81.03;98606.68;106263;1323;22272;-63
2021/12/12 05:48:23;;;;;;;111.60;90.80;;;;;;;-0.43;81.02;98610.64;106295;1323;22483;-63
2021/12/12 05:50:52;;;;;;;113.80;88.70;;;;;;;-0.44;80.97;98612.77;105915;1326;22288;-63
2021/12/12 05:53:21;;;;;;;100.00;82.70;;;;;;;-0.47;81.02;98616.12;106284;1323;22562;-63
2021/12/12 05:55:50;;;;;;;99.60;78.00;;;;;;;-0.47;80.76;98619.24;106218;1323;22371;-63
2021/12/12 05:58:22;;;;;;;91.70;79.00;;;;;;;-0.46;80.89;98620.45;106280;1323;22299;-63
2021/12/12 06:01:09;;;;;;;91.20;79.70;;;;;;;-0.42;80.94;98620.89;106242;1323;22990;-64
2021/12/12 06:03:41;;;;;;;110.10;88.70;;;;;;;-0.43;81.03;98621.80;106273;1323;23763;-63
2021/12/12 06:06:12;;;;;;;108.40;89.50;;;;;;;-0.41;81.04;98620.60;106267;1323;22460;-64
2021/12/12 06:08:43;;;;;;;103.80;85.70;;;;;;;-0.43;80.98;98623.67;106280;1323;22332;-64
2021/12/12 06:11:15;;;;;;;114.40;88.40;;;;;;;-0.46;81.16;98623.52;106270;1323;22470;-64
2021/12/12 06:13:44;;;;;;;99.10;84.40;;;;;;;-0.47;81.10;98626.05;106264;1323;22577;-64
2021/12/12 06:16:19;;;;;;;87.00;76.80;;;;;;;-0.43;81.19;98627.98;106235;1323;22586;-64
2021/12/12 06:18:52;;;;;;;95.00;82.20;;;;;;;-0.39;81.18;98621.90;106272;1323;22486;-64
2021/12/12 06:21:20;;;;;;;93.70;81.00;;;;;;;-0.36;80.97;98619.53;106224;1323;22366;-64
2021/12/12 06:23:49;;;;;;;106.70;83.00;;;;;;;-0.34;81.13;98619.92;106282;1323;22314;-63
2021/12/12 06:26:18;;;;;;;93.70;84.10;;;;;;;-0.32;81.03;98618.63;106253;1323;22410;-64
2021/12/12 06:28:48;;;;;;;96.70;84.20;;;;;;;-0.32;81.08;98629.61;106252;1323;23096;-64
2021/12/12 06:31:16;;;;;;;94.40;84.20;;;;;;;-0.33;81.14;98626.63;106284;1323;22368;-65
2021/12/12 06:33:45;;;;;;;87.00;77.90;;;;;;;-0.29;81.31;98622.02;106234;1323;23242;-64
2021/12/12 06:36:15;;;;;;;81.40;73.30;;;;;;;-0.21;81.37;98618.60;106273;1323;22558;-65
2021/12/12 06:38:48;;;;;;;83.80;75.00;;;;;;;-0.16;81.00;98618.91;106231;1323;22284;-64
2021/12/12 06:41:18;;;;;;;85.70;77.10;;;;;;;-0.08;81.12;98620.13;106237;1323;22475;-65
2021/12/12 06:43:48;;;;;;;89.20;80.00;;;;;;;-0.01;81.18;98622.66;106252;1323;22422;-65
2021/12/12 06:46:18;;;;;;;93.70;83.10;;;;;;;0.04;81.15;98623.29;106298;1323;22478;-65
2021/12/12 06:48:47;;;;;;;99.20;82.70;;;;;;;0.07;81.33;98620.98;106258;1323;22553;-65
2021/12/12 06:51:15;;;;;;;95.40;84.90;;;;;;;0.08;81.21;98624.23;106265;1323;22479;-65
2021/12/12 06:53:46;;;;;;;100.00;87.10;;;;;;;0.09;81.15;98620.72;106215;1323;22528;-65
2021/12/12 06:56:17;;;;;;;101.10;85.60;;;;;;;0.08;81.09;98618.90;106263;1323;23326;-65
2021/12/12 06:58:46;;;;;;;168.60;108.20;;;;;;;0.08;81.10;98615.02;106275;1323;23253;-65
2021/12/12 07:01:20;;;;;;;162.80;102.10;;;;;;;0.12;80.98;98615.76;106257;1323;23239;-65
2021/12/12 07:03:50;;;;;;;294.40;140.70;;;;;;;0.14;81.14;98618.77;106297;1323;22409;-66
2021/12/12 07:06:21;;;;;;;237.00;129.40;;;;;;;0.15;81.12;98623.91;106286;1323;23010;-64
2021/12/12 07:08:50;;;;;;;209.40;120.20;;;;;;;0.16;81.23;98628.91;106310;1323;22460;-65
2021/12/12 07:11:22;;;;;;;172.00;108.50;;;;;;;0.16;81.08;98632.41;106259;1323;22473;-65
2021/12/12 07:13:50;;;;;;;137.80;98.70;;;;;;;0.09;80.77;98624.77;106273;1324;23106;-65
2021/12/12 07:16:20;;;;;;;150.50;105.10;;;;;;;-0.01;80.62;98623.39;106266;1323;22402;-65
2021/12/12 07:18:50;;;;;;;143.20;101.90;;;;;;;-0.04;80.81;98623.77;106224;1323;22311;-65
2021/12/12 07:21:18;;;;;;;146.90;106.80;;;;;;;-0.07;80.71;98624.41;106250;1323;22434;-63
2021/12/12 07:23:49;;;;;;;167.20;114.90;;;;;;;-0.10;80.85;98623.67;105995;1323;22285;-64
2021/12/12 07:26:21;;;;;;;170.40;117.40;;;;;;;-0.14;80.86;98619.63;106285;1323;22520;-64
2021/12/12 07:28:52;;;;;;;166.10;119.50;;;;;;;-0.18;80.94;98620.10;106284;1323;23180;-64
2021/12/12 07:31:28;;;;;;;162.00;112.10;;;;;;;-0.24;80.95;98621.71;106270;1323;22588;-64
2021/12/12 07:34:01;;;;;;;155.30;109.10;;;;;;;-0.26;81.00;98621.44;106213;1323;22479;-66
2021/12/12 07:36:33;;;;;;;171.80;122.70;;;;;;;-0.25;81.05;98622.36;106281;1323;22467;-66
2021/12/12 07:39:06;;;;;;;175.80;117.60;;;;;;;-0.25;80.93;98626.08;106224;1325;23681;-65
2021/12/12 07:41:34;;;;;;;155.80;109.90;;;;;;;-0.31;80.82;98632.88;106272;1323;23135;-65
2021/12/12 07:44:06;;;;;;;149.10;106.00;;;;;;;-0.37;80.80;98641.61;106252;1325;22500;-65
2021/12/12 07:46:43;;;;;;;158.10;112.20;;;;;;;-0.39;80.94;98645.29;106288;1323;22211;-65
2021/12/12 07:49:11;;;;;;;157.30;107.80;;;;;;;-0.46;81.06;98647.59;106236;1324;22391;-66
2021/12/12 07:51:41;;;;;;;156.60;108.10;;;;;;;-0.48;81.15;98646.21;106261;1323;22487;-65
2021/12/12 07:54:10;;;;;;;153.10;105.70;;;;;;;-0.41;81.21;98650.30;106235;1323;22484;-64
2021/12/12 07:56:40;;;;;;;172.90;115.40;;;;;;;-0.33;81.15;98655.33;106264;1323;22394;-65
2021/12/12 07:59:10;;;;;;;194.10;126.50;;;;;;;-0.29;80.97;98656.91;106256;1323;22486;-65
2021/12/12 08:01:42;;;;;;;199.40;130.20;;;;;;;-0.32;80.93;98660.34;106247;1323;22489;-64
2021/12/12 08:04:13;;;;;;;196.70;131.20;;;;;;;-0.36;81.00;98658.81;106299;1323;22529;-65
2021/12/12 08:06:42;;;;;;;190.10;127.00;;;;;;;-0.37;81.16;98659.50;106276;1322;22489;-64
2021/12/12 08:09:13;;;;;;;192.20;119.90;;;;;;;-0.39;81.02;98662.27;106270;1323;22291;-64
2021/12/12 08:11:43;;;;;;;182.70;114.80;;;;;;;-0.43;80.82;98659.80;106275;1323;22661;-64
2021/12/12 08:14:19;;;;;;;179.40;118.50;;;;;;;-0.44;80.81;98661.23;106263;1323;22565;-64
2021/12/12 08:16:49;;;;;;;182.80;117.30;;;;;;;-0.40;81.08;98658.24;106221;1323;23131;-64
2021/12/12 08:19:19;;;;;;;185.40;127.90;;;;;;;-0.34;81.21;98654.52;106276;1323;22399;-65
2021/12/12 08:21:48;;;;;;;195.80;127.40;;;;;;;-0.31;81.17;98652.17;106275;1323;23198;-64
2021/12/12 08:24:16;;;;;;;197.10;130.00;;;;;;;-0.33;81.18;98651.81;106246;1322;22343;-64
2021/12/12 08:26:46;;;;;;;184.00;122.80;;;;;;;-0.37;81.24;98655.14;106274;1323;22559;-65
2021/12/12 08:29:15;;;;;;;182.80;121.10;;;;;;;-0.36;81.28;98654.84;106264;1323;23186;-65
2021/12/12 08:31:43;;;;;;;175.60;121.00;;;;;;;-0.32;81.24;98654.80;106297;1322;22296;-66
2021/12/12 08:34:13;;;;;;;181.90;122.20;;;;;;;-0.26;81.44;98651.92;106268;1323;22477;-64
2021/12/12 08:36:48;;;;;;;177.30;120.80;;;;;;;-0.23;81.39;98658.31;106185;1323;22468;-64
2021/12/12 08:39:18;;;;;;;182.00;124.20;;;;;;;-0.22;81.36;98658.83;106253;1323;22535;-65
2021/12/12 08:41:49;;;;;;;172.20;121.20;;;;;;;-0.21;81.49;98663.63;106285;1322;22498;-65
2021/12/12 08:44:19;;;;;;;169.90;117.30;;;;;;;-0.22;81.43;98657.32;106270;1323;22984;-66
2021/12/12 08:46:50;;;;;;;165.30;113.60;;;;;;;-0.19;81.32;98653.75;106256;1323;23268;-66
2021/12/12 08:49:21;;;;;;;158.30;113.00;;;;;;;-0.11;81.49;98647.13;106278;1323;22304;-66
2021/12/12 08:52:01;;;;;;;163.20;115.70;;;;;;;-0.02;81.47;98639.86;106250;1323;22422;-66
2021/12/12 08:54:31;;;;;;;164.60;115.80;;;;;;;0.04;81.61;98644.23;106304;1323;23233;-65
2021/12/12 08:57:13;;;;;;;158.50;113.90;;;;;;;0.09;81.59;98645.19;106115;1323;137821;-65
2021/12/12 08:59:45;;;;;;;145.60;106.50;;;;;;;0.16;81.76;98648.33;106294;1323;23242;-66
2021/12/12 09:02:17;;;;;;;126.40;97.60;;;;;;;0.21;81.35;98652.58;106263;1323;23288;-65
2021/12/12 09:05:00;;;;;;;93.10;80.30;;;;;;;0.27;81.36;98650.95;106275;1323;22587;-66
2021/12/12 09:07:34;;;;;;;76.60;69.00;;;;;;;0.34;81.08;98651.23;106252;1323;23261;-66
2021/12/12 09:10:16;;;;;;;77.00;69.30;;;;;;;0.36;80.84;98650.84;106280;1323;22385;-65
2021/12/12 09:12:56;;;;;;;76.50;68.30;;;;;;;0.34;80.52;98648.05;106265;1323;22594;-66
2021/12/12 09:15:42;;;;;;;86.70;76.00;;;;;;;0.31;80.63;98651.82;106304;1323;22337;-64
2021/12/12 09:18:17;;;;;;;82.00;67.70;;;;;;;0.26;80.75;98649.48;106285;1323;23436;-65
2021/12/12 09:20:56;;;;;;;72.50;64.80;;;;;;;0.27;80.69;98654.42;106235;1323;23204;-65
2021/12/12 09:24:00;;;;;;;70.10;62.60;;;;;;;0.33;80.17;98647.60;106297;1323;22256;-67
2021/12/12 09:26:28;;;;;;;72.80;64.90;;;;;;;0.38;80.15;98649.33;106169;1324;137687;-66
2021/12/12 09:29:06;;;;;;;76.90;69.10;;;;;;;0.43;80.01;98642.60;106228;1324;22373;-66
2021/12/12 09:31:40;;;;;;;84.20;72.80;;;;;;;0.44;79.84;98645.48;106266;1323;22601;-65
2021/12/12 09:34:16;;;;;;;80.30;70.10;;;;;;;0.47;79.87;98642.29;106209;1323;23233;-66
2021/12/12 09:36:56;;;;;;;67.60;60.90;;;;;;;0.52;79.55;98641.39;106286;1317;22515;-66
2021/12/12 09:39:35;;;;;;;63.80;57.20;;;;;;;0.59;79.65;98639.95;106030;1324;22583;-65
2021/12/12 09:42:27;;;;;;;69.40;62.30;;;;;;;0.68;79.48;98641.48;106265;1323;22555;-66
2021/12/12 09:45:16;;;;;;;72.40;64.90;;;;;;;0.73;79.23;98637.73;106209;1317;22292;-67
2021/12/12 09:51:15;;;;;;;75.80;67.80;;;;;;;0.86;79.55;98637.83;106031;1315;303974;-68
2021/12/12 09:54:14;;;;;;;71.60;64.50;;;;;;;0.91;79.23;98636.38;106243;1323;22536;-67
2021/12/12 09:56:57;;;;;;;62.70;56.30;;;;;;;1.01;79.13;98631.36;106164;1317;137328;-65
2021/12/12 10:00:08;;;;;;;66.90;60.00;;;;;;;1.01;78.72;98633.40;106267;1316;22613;-65
2021/12/12 10:02:53;;;;;;;72.90;65.20;;;;;;;1.02;78.36;98639.52;106315;1323;22997;-66
2021/12/12 10:05:35;;;;;;;61.80;55.50;;;;;;;1.08;78.72;98637.38;106245;1316;23203;-65
2021/12/12 10:08:25;;;;;;;65.40;58.60;;;;;;;1.10;78.27;98638.02;106250;1323;22537;-66
2021/12/12 10:11:24;;;;;;;64.90;58.10;;;;;;;1.13;78.62;98638.22;106236;1319;23156;-63
2021/12/12 10:14:08;;;;;;;58.40;52.10;;;;;;;1.13;78.54;98637.85;106297;1320;22427;-64
2021/12/12 10:17:11;;;;;;;53.80;48.10;;;;;;;1.20;78.18;98633.27;106273;1324;22372;-65
2021/12/12 10:20:00;;;;;;;56.90;51.20;;;;;;;1.24;77.63;98630.64;106243;1324;22515;-66
2021/12/12 10:23:12;;;;;;;61.20;54.50;;;;;;;1.27;77.70;98629.09;106264;1319;23245;-69
2021/12/12 10:26:02;;;;;;;61.50;50.90;;;;;;;1.29;77.76;98630.46;106261;1324;22431;-64
2021/12/12 10:29:10;;;;;;;54.30;48.50;;;;;;;1.33;77.42;98635.98;106179;1325;22518;-65
2021/12/12 10:32:12;;;;;;;59.80;53.60;;;;;;;1.32;76.40;98632.02;106282;1323;23249;-65
2021/12/12 10:35:10;;;;;;;62.00;55.60;;;;;;;1.27;76.91;98630.45;106308;1322;22285;-65
2021/12/12 10:38:20;;;;;;;60.30;53.90;;;;;;;1.25;76.99;98631.44;106312;1319;23274;-65
2021/12/12 10:41:21;;;;;;;58.60;52.40;;;;;;;1.15;76.33;98623.42;106260;1323;22351;-64
2021/12/12 10:44:27;;;;;;;64.20;57.50;;;;;;;1.09;76.29;98626.21;106316;1323;23230;-64
2021/12/12 10:47:10;;;;;;;65.50;58.60;;;;;;;1.06;76.39;98625.83;106191;1323;22555;-64
2021/12/12 10:50:15;;;;;;;65.10;58.10;;;;;;;1.04;76.53;98622.63;106237;1323;22395;-64
2021/12/12 10:53:03;;;;;;;66.80;59.50;;;;;;;1.00;76.72;98619.77;106310;1323;22575;-64
2021/12/12 10:55:35;;;;;;;63.90;56.70;;;;;;;1.01;77.15;98620.01;106263;1324;22607;-66
2021/12/12 10:58:07;;;;;;;66.00;59.20;;;;;;;1.07;77.26;98616.27;106237;1323;22336;-65
2021/12/12 11:00:42;;;;;;;68.50;61.40;;;;;;;1.16;77.11;98619.09;106255;1321;22502;-65
2021/12/12 11:03:35;;;;;;;71.90;63.10;;;;;;;1.19;76.82;98620.45;106167;1323;137843;-64
2021/12/12 11:06:06;;;;;;;68.80;61.90;;;;;;;1.19;77.33;98621.91;106255;1323;22616;-65
2021/12/12 11:09:06;;;;;;;65.70;58.70;;;;;;;1.25;77.18;98616.86;106268;1323;22491;-65
2021/12/12 11:11:42;;;;;;;62.20;55.20;;;;;;;1.26;76.91;98613.10;106244;1323;22458;-64
2021/12/12 11:14:27;;;;;;;59.80;53.60;;;;;;;1.32;76.99;98619.77;106269;1323;22554;-63
2021/12/12 11:17:03;;;;;;;65.90;58.20;;;;;;;1.43;76.82;98616.11;106247;1323;22433;-63
2021/12/12 11:19:38;;;;;;;68.50;56.40;;;;;;;1.51;76.92;98612.93;106248;1323;22495;-62
2021/12/12 11:22:27;;;;;;;60.00;53.90;;;;;;;1.69;76.62;98608.70;106238;1323;22397;-63
2021/12/12 11:25:05;;;;;;;42.70;38.20;;;;;;;1.91;76.42;98610.04;106273;1323;22413;-64
2021/12/12 11:27:45;;;;;;;55.40;46.90;;;;;;;2.10;75.46;98609.20;106258;1323;22531;-64
2021/12/12 11:30:21;;;;;;;53.50;45.10;;;;;;;2.22;75.65;98605.49;106201;1324;22314;-63
2021/12/12 11:32:51;;;;;;;42.20;36.20;;;;;;;2.35;75.28;98598.73;106252;1323;22476;-64
2021/12/12 11:35:22;;;;;;;39.40;35.40;;;;;;;2.39;75.17;98596.88;106276;1323;22523;-64
2021/12/12 11:38:23;;;;;;;37.40;33.40;;;;;;;2.41;73.52;98602.93;106304;1322;22385;-63
2021/12/12 11:41:09;;;;;;;31.80;28.40;;;;;;;2.32;73.24;98602.22;106097;1323;22297;-63
2021/12/12 11:43:37;;;;;;;37.30;33.50;;;;;;;2.23;71.58;98597.85;106279;1323;23705;-64
2021/12/12 11:46:35;;;;;;;37.90;33.00;;;;;;;2.29;73.58;98602.20;106303;1323;23289;-64
2021/12/12 11:49:19;;;;;;;27.60;24.60;;;;;;;2.25;71.49;98607.27;106302;1323;22488;-63
2021/12/12 11:52:09;;;;;;;31.40;28.10;;;;;;;2.16;72.35;98602.82;106262;1323;23031;-64
2021/12/12 11:54:59;;;;;;;36.10;31.60;;;;;;;2.22;72.97;98602.51;106274;1323;23138;-64
2021/12/12 11:57:32;;;;;;;25.60;21.80;;;;;;;2.34;72.08;98606.41;106244;1323;22402;-63
2021/12/12 12:00:17;;;;;;;24.70;22.00;;;;;;;2.28;70.34;98606.48;106281;1323;22829;-62
2021/12/12 12:03:09;;;;;;;23.50;20.60;;;;;;;2.18;70.37;98606.18;106285;1323;23274;-63